sensor_id;sensor_type;location;lat;lon;timestamp;P1;durP1;ratioP1;P2;durP2;ratioP2
40599;SDS011;26309;50.924;4.754;2023-11-18T00:01:25;34.07;;;22.10;;
40599;SDS011;26309;50.924;4.754;2023-11-18T00:03:56;35.63;;;22.23;;
40599;SDS011;26309;50.924;4.754;2023-11-18T00:06:22;37.63;;;21.40;;
40599;SDS011;26309;50.924;4.754;2023-11-18T00:08:47;39.93;;;23.80;;
40599;SDS011;26309;50.924;4.754;2023-11-18T00:11:13;42.40;;;24.83;;
40599;SDS011;26309;50.924;4.754;2023-11-18T00:13:39;46.33;;;24.43;;
40599;SDS011;26309;50.924;4.754;2023-11-18T00:16:09;43.80;;;25.07;;
40599;SDS011;26309;50.924;4.754;2023-11-18T00:18:42;37.90;;;22.43;;
40599;SDS011;26309;50.924;4.754;2023-11-18T00:21:08;39.40;;;23.47;;
40599;SDS011;26309;50.924;4.754;2023-11-18T00:23:34;40.63;;;22.97;;
40599;SDS011;26309;50.924;4.754;2023-11-18T00:26:00;47.53;;;23.30;;
40599;SDS011;26309;50.924;4.754;2023-11-18T00:28:27;44.87;;;24.20;;
40599;SDS011;26309;50.924;4.754;2023-11-18T00:30:53;43.13;;;24.67;;
40599;SDS011;26309;50.924;4.754;2023-11-18T00:33:19;36.83;;;22.97;;
40599;SDS011;26309;50.924;4.754;2023-11-18T00:35:44;40.00;;;23.33;;
40599;SDS011;26309;50.924;4.754;2023-11-18T00:38:10;37.93;;;23.03;;
40599;SDS011;26309;50.924;4.754;2023-11-18T00:40:36;40.63;;;23.13;;
40599;SDS011;26309;50.924;4.754;2023-11-18T00:43:05;48.93;;;23.27;;
40599;SDS011;26309;50.924;4.754;2023-11-18T00:45:30;41.47;;;22.87;;
40599;SDS011;26309;50.924;4.754;2023-11-18T00:47:56;42.33;;;24.13;;
40599;SDS011;26309;50.924;4.754;2023-11-18T00:50:22;41.17;;;24.47;;
40599;SDS011;26309;50.924;4.754;2023-11-18T00:52:48;42.50;;;24.27;;
40599;SDS011;26309;50.924;4.754;2023-11-18T00:55:14;37.27;;;22.63;;
40599;SDS011;26309;50.924;4.754;2023-11-18T00:57:43;41.13;;;22.73;;
40599;SDS011;26309;50.924;4.754;2023-11-18T01:00:13;45.67;;;23.70;;
40599;SDS011;26309;50.924;4.754;2023-11-18T01:02:41;41.40;;;23.67;;
40599;SDS011;26309;50.924;4.754;2023-11-18T01:05:08;41.40;;;24.37;;
40599;SDS011;26309;50.924;4.754;2023-11-18T01:07:35;45.53;;;23.43;;
40599;SDS011;26309;50.924;4.754;2023-11-18T01:10:05;46.87;;;23.80;;
40599;SDS011;26309;50.924;4.754;2023-11-18T01:12:32;36.53;;;23.47;;
40599;SDS011;26309;50.924;4.754;2023-11-18T01:14:58;43.23;;;23.60;;
40599;SDS011;26309;50.924;4.754;2023-11-18T01:17:24;33.67;;;22.63;;
40599;SDS011;26309;50.924;4.754;2023-11-18T01:19:50;51.20;;;24.20;;
40599;SDS011;26309;50.924;4.754;2023-11-18T01:22:16;41.77;;;24.30;;
40599;SDS011;26309;50.924;4.754;2023-11-18T01:24:43;46.53;;;24.10;;
40599;SDS011;26309;50.924;4.754;2023-11-18T01:27:10;38.00;;;24.03;;
40599;SDS011;26309;50.924;4.754;2023-11-18T01:29:37;46.13;;;23.73;;
40599;SDS011;26309;50.924;4.754;2023-11-18T01:32:05;40.27;;;23.87;;
40599;SDS011;26309;50.924;4.754;2023-11-18T01:34:37;40.00;;;22.17;;
40599;SDS011;26309;50.924;4.754;2023-11-18T01:37:08;41.53;;;22.63;;
40599;SDS011;26309;50.924;4.754;2023-11-18T01:39:34;41.83;;;23.90;;
40599;SDS011;26309;50.924;4.754;2023-11-18T01:42:01;41.73;;;22.23;;
40599;SDS011;26309;50.924;4.754;2023-11-18T01:44:30;40.77;;;22.53;;
40599;SDS011;26309;50.924;4.754;2023-11-18T01:46:57;41.00;;;21.37;;
40599;SDS011;26309;50.924;4.754;2023-11-18T01:49:23;47.33;;;22.17;;
40599;SDS011;26309;50.924;4.754;2023-11-18T01:51:52;35.63;;;21.00;;
40599;SDS011;26309;50.924;4.754;2023-11-18T01:54:19;38.47;;;20.83;;
40599;SDS011;26309;50.924;4.754;2023-11-18T01:56:47;43.67;;;21.40;;
40599;SDS011;26309;50.924;4.754;2023-11-18T01:59:14;35.87;;;19.73;;
40599;SDS011;26309;50.924;4.754;2023-11-18T02:01:47;33.10;;;19.23;;
40599;SDS011;26309;50.924;4.754;2023-11-18T02:04:15;39.23;;;19.97;;
40599;SDS011;26309;50.924;4.754;2023-11-18T02:06:42;36.90;;;18.27;;
40599;SDS011;26309;50.924;4.754;2023-11-18T02:09:10;37.13;;;19.40;;
40599;SDS011;26309;50.924;4.754;2023-11-18T02:14:49;34.80;;;17.23;;
40599;SDS011;26309;50.924;4.754;2023-11-18T02:17:17;38.93;;;19.13;;
40599;SDS011;26309;50.924;4.754;2023-11-18T02:19:50;40.53;;;18.33;;
40599;SDS011;26309;50.924;4.754;2023-11-18T02:22:21;32.30;;;18.37;;
40599;SDS011;26309;50.924;4.754;2023-11-18T02:24:48;34.57;;;18.13;;
40599;SDS011;26309;50.924;4.754;2023-11-18T02:27:15;30.97;;;17.83;;
40599;SDS011;26309;50.924;4.754;2023-11-18T02:29:43;33.03;;;16.47;;
40599;SDS011;26309;50.924;4.754;2023-11-18T02:32:23;32.20;;;18.27;;
40599;SDS011;26309;50.924;4.754;2023-11-18T02:37:36;31.23;;;16.43;;
40599;SDS011;26309;50.924;4.754;2023-11-18T02:40:09;33.07;;;16.13;;
40599;SDS011;26309;50.924;4.754;2023-11-18T02:42:43;32.30;;;16.33;;
40599;SDS011;26309;50.924;4.754;2023-11-18T02:45:10;32.47;;;16.20;;
40599;SDS011;26309;50.924;4.754;2023-11-18T02:47:41;28.50;;;15.10;;
40599;SDS011;26309;50.924;4.754;2023-11-18T02:50:11;35.03;;;16.57;;
40599;SDS011;26309;50.924;4.754;2023-11-18T02:52:38;25.20;;;13.77;;
40599;SDS011;26309;50.924;4.754;2023-11-18T02:55:05;30.70;;;15.13;;
40599;SDS011;26309;50.924;4.754;2023-11-18T02:57:33;24.07;;;13.47;;
40599;SDS011;26309;50.924;4.754;2023-11-18T02:59:59;29.37;;;14.90;;
40599;SDS011;26309;50.924;4.754;2023-11-18T03:02:28;23.00;;;13.27;;
40599;SDS011;26309;50.924;4.754;2023-11-18T03:04:57;27.63;;;13.13;;
40599;SDS011;26309;50.924;4.754;2023-11-18T03:07:23;27.40;;;13.07;;
40599;SDS011;26309;50.924;4.754;2023-11-18T03:09:49;31.20;;;12.60;;
40599;SDS011;26309;50.924;4.754;2023-11-18T03:12:16;24.33;;;12.27;;
40599;SDS011;26309;50.924;4.754;2023-11-18T03:14:41;24.47;;;14.03;;
40599;SDS011;26309;50.924;4.754;2023-11-18T03:17:08;22.93;;;12.77;;
40599;SDS011;26309;50.924;4.754;2023-11-18T03:19:35;26.67;;;13.00;;
40599;SDS011;26309;50.924;4.754;2023-11-18T03:22:01;21.43;;;12.47;;
40599;SDS011;26309;50.924;4.754;2023-11-18T03:24:28;24.77;;;12.43;;
40599;SDS011;26309;50.924;4.754;2023-11-18T03:26:55;26.07;;;12.37;;
40599;SDS011;26309;50.924;4.754;2023-11-18T03:29:21;23.20;;;12.63;;
40599;SDS011;26309;50.924;4.754;2023-11-18T03:31:47;24.03;;;13.57;;
40599;SDS011;26309;50.924;4.754;2023-11-18T03:34:17;27.20;;;13.13;;
40599;SDS011;26309;50.924;4.754;2023-11-18T03:36:48;28.17;;;13.57;;
40599;SDS011;26309;50.924;4.754;2023-11-18T03:39:15;24.30;;;13.43;;
40599;SDS011;26309;50.924;4.754;2023-11-18T03:41:43;25.20;;;13.63;;
40599;SDS011;26309;50.924;4.754;2023-11-18T03:44:12;23.23;;;13.33;;
40599;SDS011;26309;50.924;4.754;2023-11-18T03:46:38;26.23;;;14.30;;
40599;SDS011;26309;50.924;4.754;2023-11-18T03:49:04;27.00;;;13.87;;
40599;SDS011;26309;50.924;4.754;2023-11-18T03:51:30;34.83;;;15.80;;
40599;SDS011;26309;50.924;4.754;2023-11-18T03:53:55;29.20;;;14.83;;
40599;SDS011;26309;50.924;4.754;2023-11-18T03:56:21;25.93;;;15.67;;
40599;SDS011;26309;50.924;4.754;2023-11-18T03:58:47;29.77;;;15.50;;
40599;SDS011;26309;50.924;4.754;2023-11-18T04:01:22;31.97;;;15.60;;
40599;SDS011;26309;50.924;4.754;2023-11-18T04:03:54;30.97;;;16.80;;
40599;SDS011;26309;50.924;4.754;2023-11-18T04:06:20;27.27;;;16.87;;
40599;SDS011;26309;50.924;4.754;2023-11-18T04:08:48;26.03;;;16.37;;
40599;SDS011;26309;50.924;4.754;2023-11-18T04:11:14;28.17;;;15.77;;
40599;SDS011;26309;50.924;4.754;2023-11-18T04:13:40;25.20;;;14.53;;
40599;SDS011;26309;50.924;4.754;2023-11-18T04:16:10;23.03;;;13.87;;
40599;SDS011;26309;50.924;4.754;2023-11-18T04:18:45;25.50;;;13.10;;
40599;SDS011;26309;50.924;4.754;2023-11-18T04:21:11;17.70;;;10.10;;
40599;SDS011;26309;50.924;4.754;2023-11-18T04:23:38;19.40;;;8.63;;
40599;SDS011;26309;50.924;4.754;2023-11-18T04:26:06;23.70;;;8.33;;
40599;SDS011;26309;50.924;4.754;2023-11-18T04:28:32;14.33;;;7.77;;
40599;SDS011;26309;50.924;4.754;2023-11-18T04:30:59;22.60;;;8.40;;
40599;SDS011;26309;50.924;4.754;2023-11-18T04:33:25;17.87;;;7.63;;
40599;SDS011;26309;50.924;4.754;2023-11-18T04:35:52;19.67;;;7.50;;
40599;SDS011;26309;50.924;4.754;2023-11-18T04:38:18;17.97;;;8.17;;
40599;SDS011;26309;50.924;4.754;2023-11-18T04:40:44;17.70;;;7.43;;
40599;SDS011;26309;50.924;4.754;2023-11-18T04:43:11;22.73;;;7.63;;
40599;SDS011;26309;50.924;4.754;2023-11-18T04:45:37;17.47;;;6.40;;
40599;SDS011;26309;50.924;4.754;2023-11-18T04:48:04;15.77;;;6.80;;
40599;SDS011;26309;50.924;4.754;2023-11-18T04:50:31;15.93;;;6.87;;
40599;SDS011;26309;50.924;4.754;2023-11-18T04:52:58;18.93;;;6.80;;
40599;SDS011;26309;50.924;4.754;2023-11-18T04:55:24;11.13;;;6.33;;
40599;SDS011;26309;50.924;4.754;2023-11-18T04:57:51;17.47;;;6.23;;
40599;SDS011;26309;50.924;4.754;2023-11-18T05:00:20;14.80;;;5.53;;
40599;SDS011;26309;50.924;4.754;2023-11-18T05:02:46;17.47;;;6.03;;
40599;SDS011;26309;50.924;4.754;2023-11-18T05:05:16;15.37;;;5.83;;
40599;SDS011;26309;50.924;4.754;2023-11-18T05:07:43;13.60;;;5.50;;
40599;SDS011;26309;50.924;4.754;2023-11-18T05:10:09;12.70;;;5.27;;
40599;SDS011;26309;50.924;4.754;2023-11-18T05:12:38;12.60;;;4.90;;
40599;SDS011;26309;50.924;4.754;2023-11-18T05:15:05;12.33;;;5.20;;
40599;SDS011;26309;50.924;4.754;2023-11-18T05:17:41;12.33;;;4.90;;
40599;SDS011;26309;50.924;4.754;2023-11-18T05:20:07;12.00;;;4.53;;
40599;SDS011;26309;50.924;4.754;2023-11-18T05:22:34;12.00;;;5.00;;
40599;SDS011;26309;50.924;4.754;2023-11-18T05:25:02;15.63;;;4.50;;
40599;SDS011;26309;50.924;4.754;2023-11-18T05:27:29;18.83;;;5.03;;
40599;SDS011;26309;50.924;4.754;2023-11-18T05:29:56;10.50;;;4.47;;
40599;SDS011;26309;50.924;4.754;2023-11-18T05:32:26;9.77;;;4.37;;
40599;SDS011;26309;50.924;4.754;2023-11-18T05:34:53;16.77;;;4.80;;
40599;SDS011;26309;50.924;4.754;2023-11-18T05:37:26;10.13;;;4.13;;
40599;SDS011;26309;50.924;4.754;2023-11-18T05:39:54;12.63;;;4.40;;
40599;SDS011;26309;50.924;4.754;2023-11-18T05:42:31;11.60;;;3.97;;
40599;SDS011;26309;50.924;4.754;2023-11-18T05:45:06;12.17;;;3.90;;
40599;SDS011;26309;50.924;4.754;2023-11-18T05:47:34;12.47;;;3.77;;
40599;SDS011;26309;50.924;4.754;2023-11-18T05:50:00;13.20;;;4.13;;
40599;SDS011;26309;50.924;4.754;2023-11-18T05:52:26;11.80;;;4.40;;
40599;SDS011;26309;50.924;4.754;2023-11-18T05:54:52;19.30;;;4.10;;
40599;SDS011;26309;50.924;4.754;2023-11-18T05:57:18;12.80;;;4.00;;
40599;SDS011;26309;50.924;4.754;2023-11-18T05:59:44;11.00;;;3.73;;
40599;SDS011;26309;50.924;4.754;2023-11-18T06:02:13;11.63;;;4.40;;
40599;SDS011;26309;50.924;4.754;2023-11-18T06:04:42;10.60;;;3.77;;
40599;SDS011;26309;50.924;4.754;2023-11-18T06:07:11;11.03;;;3.60;;
40599;SDS011;26309;50.924;4.754;2023-11-18T06:09:40;15.33;;;4.30;;
40599;SDS011;26309;50.924;4.754;2023-11-18T06:12:07;8.17;;;3.20;;
40599;SDS011;26309;50.924;4.754;2023-11-18T06:14:35;10.33;;;3.30;;
40599;SDS011;26309;50.924;4.754;2023-11-18T06:17:02;8.57;;;3.90;;
40599;SDS011;26309;50.924;4.754;2023-11-18T06:19:28;13.57;;;3.80;;
40599;SDS011;26309;50.924;4.754;2023-11-18T06:21:54;13.33;;;3.73;;
40599;SDS011;26309;50.924;4.754;2023-11-18T06:24:20;9.67;;;3.50;;
40599;SDS011;26309;50.924;4.754;2023-11-18T06:26:46;13.70;;;3.60;;
40599;SDS011;26309;50.924;4.754;2023-11-18T06:29:14;12.17;;;3.50;;
40599;SDS011;26309;50.924;4.754;2023-11-18T06:31:41;15.87;;;3.53;;
40599;SDS011;26309;50.924;4.754;2023-11-18T06:34:07;12.77;;;3.50;;
40599;SDS011;26309;50.924;4.754;2023-11-18T06:36:34;12.63;;;3.47;;
40599;SDS011;26309;50.924;4.754;2023-11-18T06:39:00;13.03;;;3.40;;
40599;SDS011;26309;50.924;4.754;2023-11-18T06:41:26;11.23;;;3.50;;
40599;SDS011;26309;50.924;4.754;2023-11-18T06:43:59;12.50;;;2.90;;
40599;SDS011;26309;50.924;4.754;2023-11-18T06:46:37;10.10;;;3.00;;
40599;SDS011;26309;50.924;4.754;2023-11-18T06:49:05;15.60;;;3.03;;
40599;SDS011;26309;50.924;4.754;2023-11-18T06:51:33;9.97;;;3.20;;
40599;SDS011;26309;50.924;4.754;2023-11-18T06:54:00;10.83;;;3.10;;
40599;SDS011;26309;50.924;4.754;2023-11-18T06:56:35;12.63;;;3.20;;
40599;SDS011;26309;50.924;4.754;2023-11-18T06:59:03;9.03;;;3.50;;
40599;SDS011;26309;50.924;4.754;2023-11-18T07:01:33;9.37;;;2.80;;
40599;SDS011;26309;50.924;4.754;2023-11-18T07:03:59;11.00;;;3.10;;
40599;SDS011;26309;50.924;4.754;2023-11-18T07:06:25;12.30;;;3.20;;
40599;SDS011;26309;50.924;4.754;2023-11-18T07:08:52;9.23;;;2.73;;
40599;SDS011;26309;50.924;4.754;2023-11-18T07:11:18;11.40;;;3.03;;
40599;SDS011;26309;50.924;4.754;2023-11-18T07:13:48;9.83;;;3.20;;
40599;SDS011;26309;50.924;4.754;2023-11-18T07:16:14;10.87;;;3.00;;
40599;SDS011;26309;50.924;4.754;2023-11-18T07:18:40;4.93;;;2.37;;
40599;SDS011;26309;50.924;4.754;2023-11-18T07:21:10;9.13;;;2.90;;
40599;SDS011;26309;50.924;4.754;2023-11-18T07:23:36;8.43;;;3.17;;
40599;SDS011;26309;50.924;4.754;2023-11-18T07:26:02;9.27;;;3.20;;
40599;SDS011;26309;50.924;4.754;2023-11-18T07:28:31;11.80;;;3.10;;
40599;SDS011;26309;50.924;4.754;2023-11-18T07:30:57;10.07;;;3.03;;
40599;SDS011;26309;50.924;4.754;2023-11-18T07:33:24;10.93;;;3.30;;
40599;SDS011;26309;50.924;4.754;2023-11-18T07:35:50;10.40;;;3.67;;
40599;SDS011;26309;50.924;4.754;2023-11-18T07:38:17;10.77;;;3.13;;
40599;SDS011;26309;50.924;4.754;2023-11-18T07:40:45;13.87;;;3.53;;
40599;SDS011;26309;50.924;4.754;2023-11-18T07:43:11;12.20;;;3.63;;
40599;SDS011;26309;50.924;4.754;2023-11-18T07:45:38;5.80;;;2.97;;
40599;SDS011;26309;50.924;4.754;2023-11-18T07:48:07;8.73;;;3.13;;
40599;SDS011;26309;50.924;4.754;2023-11-18T07:50:37;11.77;;;3.13;;
40599;SDS011;26309;50.924;4.754;2023-11-18T07:53:07;10.60;;;3.17;;
40599;SDS011;26309;50.924;4.754;2023-11-18T07:55:33;14.70;;;3.13;;
40599;SDS011;26309;50.924;4.754;2023-11-18T07:58:00;8.23;;;3.50;;
40599;SDS011;26309;50.924;4.754;2023-11-18T08:00:27;10.33;;;3.50;;
40599;SDS011;26309;50.924;4.754;2023-11-18T08:02:56;6.93;;;3.20;;
40599;SDS011;26309;50.924;4.754;2023-11-18T08:05:25;7.83;;;3.23;;
40599;SDS011;26309;50.924;4.754;2023-11-18T08:07:53;16.17;;;3.97;;
40599;SDS011;26309;50.924;4.754;2023-11-18T08:10:19;7.97;;;3.57;;
40599;SDS011;26309;50.924;4.754;2023-11-18T08:12:46;9.53;;;3.63;;
40599;SDS011;26309;50.924;4.754;2023-11-18T08:15:13;12.43;;;3.90;;
40599;SDS011;26309;50.924;4.754;2023-11-18T08:17:39;10.50;;;3.60;;
40599;SDS011;26309;50.924;4.754;2023-11-18T08:20:05;16.10;;;4.00;;
40599;SDS011;26309;50.924;4.754;2023-11-18T08:22:50;9.80;;;3.83;;
40599;SDS011;26309;50.924;4.754;2023-11-18T08:25:16;10.80;;;3.80;;
40599;SDS011;26309;50.924;4.754;2023-11-18T08:27:45;9.00;;;4.03;;
40599;SDS011;26309;50.924;4.754;2023-11-18T08:30:11;11.63;;;4.00;;
40599;SDS011;26309;50.924;4.754;2023-11-18T08:32:42;9.93;;;4.00;;
40599;SDS011;26309;50.924;4.754;2023-11-18T08:35:09;13.87;;;4.10;;
40599;SDS011;26309;50.924;4.754;2023-11-18T08:37:38;10.87;;;4.80;;
40599;SDS011;26309;50.924;4.754;2023-11-18T08:40:05;13.60;;;4.70;;
40599;SDS011;26309;50.924;4.754;2023-11-18T08:42:47;11.77;;;4.30;;
40599;SDS011;26309;50.924;4.754;2023-11-18T08:45:18;12.90;;;4.40;;
40599;SDS011;26309;50.924;4.754;2023-11-18T08:47:46;14.20;;;5.17;;
40599;SDS011;26309;50.924;4.754;2023-11-18T08:50:13;11.23;;;4.80;;
40599;SDS011;26309;50.924;4.754;2023-11-18T08:52:42;15.53;;;4.90;;
40599;SDS011;26309;50.924;4.754;2023-11-18T08:55:12;14.27;;;5.30;;
40599;SDS011;26309;50.924;4.754;2023-11-18T08:57:50;11.97;;;5.27;;
40599;SDS011;26309;50.924;4.754;2023-11-18T09:00:40;10.57;;;4.90;;
40599;SDS011;26309;50.924;4.754;2023-11-18T09:03:09;14.10;;;5.57;;
40599;SDS011;26309;50.924;4.754;2023-11-18T09:06:00;15.73;;;5.53;;
40599;SDS011;26309;50.924;4.754;2023-11-18T09:08:37;12.47;;;5.47;;
40599;SDS011;26309;50.924;4.754;2023-11-18T09:11:07;10.97;;;5.47;;
40599;SDS011;26309;50.924;4.754;2023-11-18T09:13:36;14.87;;;5.73;;
40599;SDS011;26309;50.924;4.754;2023-11-18T09:16:04;12.03;;;5.10;;
40599;SDS011;26309;50.924;4.754;2023-11-18T09:18:34;14.60;;;5.40;;
40599;SDS011;26309;50.924;4.754;2023-11-18T09:21:01;11.10;;;5.03;;
40599;SDS011;26309;50.924;4.754;2023-11-18T09:23:30;14.18;;;4.93;;
40599;SDS011;26309;50.924;4.754;2023-11-18T09:25:57;14.83;;;5.23;;
40599;SDS011;26309;50.924;4.754;2023-11-18T09:28:24;11.32;;;4.72;;
40599;SDS011;26309;50.924;4.754;2023-11-18T09:30:50;13.33;;;4.93;;
40599;SDS011;26309;50.924;4.754;2023-11-18T09:33:19;12.93;;;5.57;;
40599;SDS011;26309;50.924;4.754;2023-11-18T09:35:54;14.32;;;4.90;;
40599;SDS011;26309;50.924;4.754;2023-11-18T09:38:40;11.70;;;5.40;;
40599;SDS011;26309;50.924;4.754;2023-11-18T09:41:07;13.73;;;4.95;;
40599;SDS011;26309;50.924;4.754;2023-11-18T09:43:36;11.80;;;5.10;;
40599;SDS011;26309;50.924;4.754;2023-11-18T09:49:15;9.47;;;4.67;;
40599;SDS011;26309;50.924;4.754;2023-11-18T09:51:50;9.25;;;5.15;;
40599;SDS011;26309;50.924;4.754;2023-11-18T09:54:26;12.87;;;5.20;;
40599;SDS011;26309;50.924;4.754;2023-11-18T09:57:08;16.30;;;5.65;;
40599;SDS011;26309;50.924;4.754;2023-11-18T09:59:43;11.07;;;5.50;;
40599;SDS011;26309;50.924;4.754;2023-11-18T10:02:10;8.65;;;5.18;;
40599;SDS011;26309;50.924;4.754;2023-11-18T10:04:37;9.57;;;5.07;;
40599;SDS011;26309;50.924;4.754;2023-11-18T10:07:05;14.73;;;5.85;;
40599;SDS011;26309;50.924;4.754;2023-11-18T10:09:36;10.82;;;5.53;;
40599;SDS011;26309;50.924;4.754;2023-11-18T10:12:02;9.27;;;5.77;;
40599;SDS011;26309;50.924;4.754;2023-11-18T10:14:35;10.98;;;5.80;;
40599;SDS011;26309;50.924;4.754;2023-11-18T10:17:05;19.58;;;5.60;;
40599;SDS011;26309;50.924;4.754;2023-11-18T10:24:49;8.77;;;5.35;;
40599;SDS011;26309;50.924;4.754;2023-11-18T10:27:19;10.83;;;5.27;;
40599;SDS011;26309;50.924;4.754;2023-11-18T10:29:48;10.50;;;5.93;;
40599;SDS011;26309;50.924;4.754;2023-11-18T10:32:14;12.40;;;6.05;;
40599;SDS011;26309;50.924;4.754;2023-11-18T10:34:47;12.52;;;5.90;;
40599;SDS011;26309;50.924;4.754;2023-11-18T10:37:14;9.95;;;5.72;;
40599;SDS011;26309;50.924;4.754;2023-11-18T10:39:42;9.63;;;5.13;;
40599;SDS011;26309;50.924;4.754;2023-11-18T10:42:13;11.32;;;5.68;;
40599;SDS011;26309;50.924;4.754;2023-11-18T10:45:04;10.60;;;5.50;;
40599;SDS011;26309;50.924;4.754;2023-11-18T10:47:32;10.45;;;5.70;;
40599;SDS011;26309;50.924;4.754;2023-11-18T10:50:00;10.67;;;5.60;;
40599;SDS011;26309;50.924;4.754;2023-11-18T10:52:26;10.83;;;5.67;;
40599;SDS011;26309;50.924;4.754;2023-11-18T10:55:00;8.50;;;5.63;;
40599;SDS011;26309;50.924;4.754;2023-11-18T10:57:32;10.05;;;6.07;;
40599;SDS011;26309;50.924;4.754;2023-11-18T11:00:07;12.05;;;5.63;;
40599;SDS011;26309;50.924;4.754;2023-11-18T11:02:42;11.87;;;5.77;;
40599;SDS011;26309;50.924;4.754;2023-11-18T11:05:08;12.87;;;5.67;;
40599;SDS011;26309;50.924;4.754;2023-11-18T11:07:43;9.63;;;4.90;;
40599;SDS011;26309;50.924;4.754;2023-11-18T11:10:10;7.55;;;5.18;;
40599;SDS011;26309;50.924;4.754;2023-11-18T11:12:49;8.30;;;5.55;;
40599;SDS011;26309;50.924;4.754;2023-11-18T11:15:22;8.43;;;6.00;;
40599;SDS011;26309;50.924;4.754;2023-11-18T11:17:53;12.98;;;5.22;;
40599;SDS011;26309;50.924;4.754;2023-11-18T11:20:27;8.50;;;4.32;;
40599;SDS011;26309;50.924;4.754;2023-11-18T11:23:35;6.28;;;4.35;;
40599;SDS011;26309;50.924;4.754;2023-11-18T11:26:23;8.15;;;4.32;;
40599;SDS011;26309;50.924;4.754;2023-11-18T11:29:25;7.65;;;3.70;;
40599;SDS011;26309;50.924;4.754;2023-11-18T11:32:11;6.72;;;3.92;;
40599;SDS011;26309;50.924;4.754;2023-11-18T11:34:40;7.53;;;3.67;;
40599;SDS011;26309;50.924;4.754;2023-11-18T11:37:15;5.47;;;3.42;;
40599;SDS011;26309;50.924;4.754;2023-11-18T11:39:42;8.80;;;3.72;;
40599;SDS011;26309;50.924;4.754;2023-11-18T11:42:12;5.85;;;3.42;;
40599;SDS011;26309;50.924;4.754;2023-11-18T11:44:42;6.85;;;3.40;;
40599;SDS011;26309;50.924;4.754;2023-11-18T11:47:09;5.28;;;3.35;;
40599;SDS011;26309;50.924;4.754;2023-11-18T11:52:43;7.25;;;3.20;;
40599;SDS011;26309;50.924;4.754;2023-11-18T11:58:33;3.78;;;2.90;;
40599;SDS011;26309;50.924;4.754;2023-11-18T12:01:14;4.10;;;2.67;;
40599;SDS011;26309;50.924;4.754;2023-11-18T12:03:51;4.57;;;2.70;;
40599;SDS011;26309;50.924;4.754;2023-11-18T12:06:23;6.35;;;2.55;;
40599;SDS011;26309;50.924;4.754;2023-11-18T12:08:52;4.88;;;2.03;;
40599;SDS011;26309;50.924;4.754;2023-11-18T12:11:18;4.55;;;2.17;;
40599;SDS011;26309;50.924;4.754;2023-11-18T12:14:06;8.15;;;2.50;;
40599;SDS011;26309;50.924;4.754;2023-11-18T12:17:03;4.22;;;2.20;;
40599;SDS011;26309;50.924;4.754;2023-11-18T12:19:33;3.58;;;1.98;;
40599;SDS011;26309;50.924;4.754;2023-11-18T12:22:14;2.63;;;1.67;;
40599;SDS011;26309;50.924;4.754;2023-11-18T12:24:45;2.13;;;1.67;;
40599;SDS011;26309;50.924;4.754;2023-11-18T12:27:14;3.50;;;1.77;;
40599;SDS011;26309;50.924;4.754;2023-11-18T12:38:46;2.53;;;1.50;;
40599;SDS011;26309;50.924;4.754;2023-11-18T12:41:36;2.47;;;1.67;;
40599;SDS011;26309;50.924;4.754;2023-11-18T12:44:15;2.05;;;1.33;;
40599;SDS011;26309;50.924;4.754;2023-11-18T12:46:48;6.32;;;1.55;;
40599;SDS011;26309;50.924;4.754;2023-11-18T12:49:15;4.55;;;1.52;;
40599;SDS011;26309;50.924;4.754;2023-11-18T12:51:45;3.90;;;1.50;;
40599;SDS011;26309;50.924;4.754;2023-11-18T12:54:13;4.47;;;1.60;;
40599;SDS011;26309;50.924;4.754;2023-11-18T12:56:41;1.45;;;1.25;;
40599;SDS011;26309;50.924;4.754;2023-11-18T12:59:14;1.50;;;1.40;;
40599;SDS011;26309;50.924;4.754;2023-11-18T13:01:43;2.97;;;1.33;;
40599;SDS011;26309;50.924;4.754;2023-11-18T13:04:18;1.40;;;1.23;;
40599;SDS011;26309;50.924;4.754;2023-11-18T13:06:47;2.20;;;1.30;;
40599;SDS011;26309;50.924;4.754;2023-11-18T13:09:29;3.13;;;1.33;;
40599;SDS011;26309;50.924;4.754;2023-11-18T13:12:00;1.60;;;1.30;;
40599;SDS011;26309;50.924;4.754;2023-11-18T13:14:31;2.88;;;1.30;;
40599;SDS011;26309;50.924;4.754;2023-11-18T13:17:04;2.58;;;1.40;;
40599;SDS011;26309;50.924;4.754;2023-11-18T13:19:33;2.20;;;1.67;;
40599;SDS011;26309;50.924;4.754;2023-11-18T13:22:04;1.45;;;1.35;;
40599;SDS011;26309;50.924;4.754;2023-11-18T13:24:34;1.83;;;1.42;;
40599;SDS011;26309;50.924;4.754;2023-11-18T13:27:09;3.80;;;1.38;;
40599;SDS011;26309;50.924;4.754;2023-11-18T13:29:36;2.47;;;1.38;;
40599;SDS011;26309;50.924;4.754;2023-11-18T13:32:06;1.58;;;1.48;;
40599;SDS011;26309;50.924;4.754;2023-11-18T13:34:35;2.22;;;1.60;;
40599;SDS011;26309;50.924;4.754;2023-11-18T13:37:03;1.50;;;1.40;;
40599;SDS011;26309;50.924;4.754;2023-11-18T13:39:31;1.40;;;1.30;;
40599;SDS011;26309;50.924;4.754;2023-11-18T13:41:58;4.57;;;1.33;;
40599;SDS011;26309;50.924;4.754;2023-11-18T13:44:42;1.58;;;1.40;;
40599;SDS011;26309;50.924;4.754;2023-11-18T13:47:10;2.03;;;1.40;;
40599;SDS011;26309;50.924;4.754;2023-11-18T13:49:39;1.50;;;1.35;;
40599;SDS011;26309;50.924;4.754;2023-11-18T13:52:08;1.88;;;1.60;;
40599;SDS011;26309;50.924;4.754;2023-11-18T13:54:38;1.30;;;1.20;;
40599;SDS011;26309;50.924;4.754;2023-11-18T13:57:05;2.20;;;1.20;;
40599;SDS011;26309;50.924;4.754;2023-11-18T13:59:32;1.58;;;1.20;;
40599;SDS011;26309;50.924;4.754;2023-11-18T14:01:59;2.53;;;1.30;;
40599;SDS011;26309;50.924;4.754;2023-11-18T14:04:29;1.17;;;1.10;;
40599;SDS011;26309;50.924;4.754;2023-11-18T14:06:57;1.60;;;1.02;;
40599;SDS011;26309;50.924;4.754;2023-11-18T14:09:24;2.75;;;1.10;;
40599;SDS011;26309;50.924;4.754;2023-11-18T14:11:52;1.15;;;1.02;;
40599;SDS011;26309;50.924;4.754;2023-11-18T14:14:24;3.55;;;1.30;;
40599;SDS011;26309;50.924;4.754;2023-11-18T14:16:50;1.10;;;1.00;;
40599;SDS011;26309;50.924;4.754;2023-11-18T14:19:23;1.10;;;1.00;;
40599;SDS011;26309;50.924;4.754;2023-11-18T14:21:56;1.85;;;1.20;;
40599;SDS011;26309;50.924;4.754;2023-11-18T14:24:22;2.35;;;1.20;;
40599;SDS011;26309;50.924;4.754;2023-11-18T14:26:48;2.30;;;1.20;;
40599;SDS011;26309;50.924;4.754;2023-11-18T14:29:15;2.08;;;1.25;;
40599;SDS011;26309;50.924;4.754;2023-11-18T14:31:41;1.00;;;1.00;;
40599;SDS011;26309;50.924;4.754;2023-11-18T14:34:07;1.30;;;1.10;;
40599;SDS011;26309;50.924;4.754;2023-11-18T14:36:36;1.08;;;1.05;;
40599;SDS011;26309;50.924;4.754;2023-11-18T14:39:03;1.15;;;1.00;;
40599;SDS011;26309;50.924;4.754;2023-11-18T14:41:29;1.70;;;1.10;;
40599;SDS011;26309;50.924;4.754;2023-11-18T14:43:56;1.48;;;1.00;;
40599;SDS011;26309;50.924;4.754;2023-11-18T14:46:29;2.38;;;1.20;;
40599;SDS011;26309;50.924;4.754;2023-11-18T14:48:57;1.50;;;1.40;;
40599;SDS011;26309;50.924;4.754;2023-11-18T14:51:23;1.40;;;1.30;;
40599;SDS011;26309;50.924;4.754;2023-11-18T14:53:49;2.88;;;1.17;;
40599;SDS011;26309;50.924;4.754;2023-11-18T14:56:15;0.90;;;0.90;;
40599;SDS011;26309;50.924;4.754;2023-11-18T14:58:42;2.15;;;1.17;;
40599;SDS011;26309;50.924;4.754;2023-11-18T15:01:07;2.63;;;1.08;;
40599;SDS011;26309;50.924;4.754;2023-11-18T15:03:36;1.70;;;1.20;;
40599;SDS011;26309;50.924;4.754;2023-11-18T15:06:02;1.42;;;1.30;;
40599;SDS011;26309;50.924;4.754;2023-11-18T15:08:28;2.70;;;1.20;;
40599;SDS011;26309;50.924;4.754;2023-11-18T15:10:55;1.35;;;1.20;;
40599;SDS011;26309;50.924;4.754;2023-11-18T15:13:24;1.30;;;1.20;;
40599;SDS011;26309;50.924;4.754;2023-11-18T15:15:50;1.40;;;1.30;;
40599;SDS011;26309;50.924;4.754;2023-11-18T15:18:16;1.00;;;1.00;;